createdAt,value
2022-10-04T00:01:30.147Z,15.54
2022-10-04T00:03:41.195Z,15.55
2022-10-04T00:05:49.648Z,15.56
2022-10-04T00:07:56.878Z,15.55
2022-10-04T00:10:04.047Z,15.56
2022-10-04T00:12:08.491Z,15.58
2022-10-04T00:14:18.091Z,15.59
2022-10-04T00:16:27.455Z,15.61
2022-10-04T00:18:33.122Z,15.63
2022-10-04T00:21:03.797Z,15.64
2022-10-04T00:23:30.943Z,15.67
2022-10-04T00:25:37.683Z,15.68
2022-10-04T00:27:40.951Z,15.68
2022-10-04T00:29:44.191Z,15.68
2022-10-04T00:32:20.792Z,15.68
2022-10-04T00:34:47.423Z,15.66
2022-10-04T00:36:55.888Z,15.66
2022-10-04T00:39:32.322Z,15.65
2022-10-04T00:41:40.199Z,15.65
2022-10-04T00:43:49.619Z,15.64
2022-10-04T00:45:55.789Z,15.64
2022-10-04T00:48:31.062Z,15.63
2022-10-04T00:50:39.905Z,15.62
2022-10-04T00:52:48.734Z,15.62
2022-10-04T00:54:56.561Z,15.61
2022-10-04T00:57:03.911Z,15.62
2022-10-04T00:59:30.756Z,15.64
2022-10-04T01:01:38.103Z,15.65
2022-10-04T01:03:44.919Z,15.66
2022-10-04T01:05:52.097Z,15.68
2022-10-04T01:08:00.604Z,15.68
2022-10-04T01:10:10.004Z,15.71
2022-10-04T01:12:21.432Z,15.70
2022-10-04T01:14:35.533Z,15.72
2022-10-04T01:16:40.193Z,15.72
2022-10-04T01:18:43.485Z,15.73
2022-10-04T01:20:56.513Z,15.72
2022-10-04T01:23:01.069Z,15.73
2022-10-04T01:25:04.949Z,15.72
2022-10-04T01:27:42.505Z,15.71
2022-10-04T01:29:45.811Z,15.70
2022-10-04T01:31:51.519Z,15.70
2022-10-04T01:33:56.017Z,15.70
2022-10-04T01:35:59.621Z,15.72
2022-10-04T01:38:05.099Z,15.71
2022-10-04T01:40:10.708Z,15.72
2022-10-04T01:42:19.906Z,15.71
2022-10-04T01:44:32.235Z,15.70
2022-10-04T01:46:38.571Z,15.71
2022-10-04T01:48:45.577Z,15.70
2022-10-04T01:50:55.808Z,15.71
2022-10-04T01:53:08.403Z,15.70
2022-10-04T01:55:16.892Z,15.69
2022-10-04T01:57:24.653Z,15.70
2022-10-04T01:59:33.721Z,15.70
2022-10-04T02:01:42.746Z,15.70
2022-10-04T02:03:52.624Z,15.69
2022-10-04T02:06:00.538Z,15.70
2022-10-04T02:08:06.528Z,15.71
2022-10-04T02:10:14.357Z,15.70
2022-10-04T02:12:19.998Z,15.72
2022-10-04T02:14:26.954Z,15.73
2022-10-04T02:16:33.194Z,15.73
2022-10-04T02:18:39.751Z,15.74
2022-10-04T02:20:44.220Z,15.74
2022-10-04T02:22:51.111Z,15.74
2022-10-04T02:24:57.674Z,15.74
2022-10-04T02:27:01.052Z,15.74
2022-10-04T02:29:04.411Z,15.73
2022-10-04T02:31:26.655Z,15.72
2022-10-04T02:33:31.358Z,15.72
2022-10-04T02:35:37.751Z,15.71
2022-10-04T02:37:41.096Z,15.71
2022-10-04T02:39:48.407Z,15.71
2022-10-04T02:41:55.701Z,15.71
2022-10-04T02:44:04.845Z,15.72
2022-10-04T02:46:15.203Z,15.71
2022-10-04T02:48:35.979Z,15.73
2022-10-04T02:50:46.513Z,15.74
2022-10-04T02:52:56.279Z,15.74
2022-10-04T02:55:05.633Z,15.75
2022-10-04T02:57:16.455Z,15.75
2022-10-04T02:59:19.849Z,15.74
2022-10-04T03:01:30.137Z,15.74
2022-10-04T03:03:37.088Z,15.72
2022-10-04T03:05:41.905Z,15.73
2022-10-04T03:07:45.233Z,15.71
2022-10-04T03:09:49.140Z,15.71
2022-10-04T03:11:53.156Z,15.69
2022-10-04T03:13:59.889Z,15.69
2022-10-04T03:16:03.301Z,15.68
2022-10-04T03:18:06.962Z,15.66
2022-10-04T03:20:16.282Z,15.66
2022-10-04T03:22:20.383Z,15.64
2022-10-04T03:24:29.149Z,15.65
2022-10-04T03:26:37.942Z,15.65
2022-10-04T03:28:41.701Z,15.67
2022-10-04T03:30:45.993Z,15.66
2022-10-04T03:32:50.515Z,15.67
2022-10-04T03:34:57.272Z,15.67
2022-10-04T03:37:03.381Z,15.67
2022-10-04T03:39:10.631Z,15.68
2022-10-04T03:41:16.002Z,15.69
2022-10-04T03:43:19.833Z,15.69
2022-10-04T03:45:24.824Z,15.70
2022-10-04T03:47:32.116Z,15.68
2022-10-04T03:49:38.415Z,15.70
2022-10-04T03:51:47.944Z,15.70
2022-10-04T03:53:55.697Z,15.70
2022-10-04T03:56:04.268Z,15.70
2022-10-04T03:58:11.161Z,15.71
2022-10-04T04:00:18.305Z,15.71
2022-10-04T04:02:32.397Z,15.72
2022-10-04T04:04:46.955Z,15.72
2022-10-04T04:06:59.144Z,15.72
2022-10-04T04:09:07.831Z,15.72
2022-10-04T04:11:20.037Z,15.73
2022-10-04T04:13:27.287Z,15.74
2022-10-04T04:15:33.564Z,15.74
2022-10-04T04:17:41.357Z,15.77
2022-10-04T04:19:46.416Z,15.78
2022-10-04T04:21:51.250Z,15.77
2022-10-04T04:23:59.844Z,15.77
2022-10-04T04:26:19.854Z,15.77
2022-10-04T04:28:27.578Z,15.77
2022-10-04T04:30:32.998Z,15.77
2022-10-04T04:32:40.279Z,15.76
2022-10-04T04:34:53.010Z,15.76
2022-10-04T04:37:00.252Z,15.76
2022-10-04T04:39:32.970Z,15.78
2022-10-04T04:41:38.081Z,15.79
2022-10-04T04:43:45.190Z,15.78
2022-10-04T04:46:08.599Z,15.80
2022-10-04T04:48:17.389Z,15.78
2022-10-04T04:50:23.899Z,15.78
2022-10-04T04:52:31.525Z,15.80
2022-10-04T04:54:35.046Z,15.80
2022-10-04T04:56:39.711Z,15.80
2022-10-04T04:58:46.716Z,15.79
2022-10-04T05:00:57.177Z,15.80
2022-10-04T05:03:02.600Z,15.80
2022-10-04T05:05:20.686Z,15.80
2022-10-04T05:07:24.199Z,15.81
2022-10-04T05:09:30.924Z,15.81
2022-10-04T05:11:37.557Z,15.81
2022-10-04T05:13:47.515Z,15.81
2022-10-04T05:15:55.200Z,15.81
2022-10-04T05:17:59.615Z,15.80
2022-10-04T05:20:04.800Z,15.78
2022-10-04T05:22:11.851Z,15.75
2022-10-04T05:24:21.761Z,15.72
2022-10-04T05:26:29.089Z,15.72
2022-10-04T05:28:34.379Z,15.70
2022-10-04T05:30:48.840Z,15.69
2022-10-04T05:33:01.196Z,15.68
2022-10-04T05:35:16.188Z,15.66
2022-10-04T05:37:29.664Z,15.63
2022-10-04T05:39:39.907Z,15.60
2022-10-04T05:41:53.635Z,15.56
2022-10-04T05:43:56.920Z,15.53
2022-10-04T05:46:21.673Z,15.51
2022-10-04T05:48:26.593Z,15.48
2022-10-04T05:50:32.821Z,15.47
2022-10-04T05:52:38.523Z,15.47
2022-10-04T05:54:41.901Z,15.45
2022-10-04T05:57:08.322Z,15.46
2022-10-04T05:59:25.602Z,15.45
2022-10-04T06:01:41.432Z,15.47
2022-10-04T06:04:16.539Z,15.49
2022-10-04T06:06:25.620Z,15.51
2022-10-04T06:08:52.766Z,15.56
2022-10-04T06:11:14.670Z,15.62
2022-10-04T06:13:40.097Z,15.66
2022-10-04T06:16:09.578Z,15.70
2022-10-04T06:18:46.326Z,15.74
2022-10-04T06:21:27.791Z,15.77
2022-10-04T06:23:34.629Z,15.79
2022-10-04T06:25:41.773Z,15.80
2022-10-04T06:27:54.307Z,15.82
2022-10-04T06:30:03.178Z,15.82
2022-10-04T06:32:37.291Z,15.81
2022-10-04T06:35:09.812Z,15.79
2022-10-04T06:37:33.394Z,15.76
2022-10-04T06:40:02.925Z,15.74
2022-10-04T06:42:17.483Z,15.72
2022-10-04T06:44:46.409Z,15.68
2022-10-04T06:46:52.215Z,15.66
2022-10-04T06:49:09.903Z,15.65
2022-10-04T06:51:24.962Z,15.65
2022-10-04T06:53:40.564Z,15.65
2022-10-04T06:56:07.494Z,15.67
2022-10-04T06:58:46.593Z,15.71
2022-10-04T07:00:57.806Z,15.74
2022-10-04T07:03:05.953Z,15.78
2022-10-04T07:05:20.150Z,15.82
2022-10-04T07:07:38.327Z,15.83
2022-10-04T07:09:43.727Z,15.85
2022-10-04T07:11:54.331Z,15.85
2022-10-04T07:14:06.692Z,15.87
2022-10-04T07:16:23.840Z,15.86
2022-10-04T07:18:32.974Z,15.87
2022-10-04T07:20:38.998Z,15.88
2022-10-04T07:22:50.527Z,15.90
2022-10-04T07:25:08.706Z,15.92
2022-10-04T07:27:17.789Z,15.94
2022-10-04T07:29:26.472Z,15.96
2022-10-04T07:31:34.797Z,15.98
2022-10-04T07:33:46.098Z,16.00
2022-10-04T07:35:54.563Z,16.00
2022-10-04T07:38:10.863Z,16.01
2022-10-04T07:40:24.006Z,16.03
2022-10-04T07:42:29.548Z,16.05
2022-10-04T07:44:37.843Z,16.07
2022-10-04T07:46:54.262Z,16.09
2022-10-04T07:48:59.131Z,16.10
2022-10-04T07:51:10.170Z,16.11
2022-10-04T07:53:19.594Z,16.13
2022-10-04T07:55:29.122Z,16.12
2022-10-04T07:57:41.652Z,16.13
2022-10-04T07:59:55.684Z,16.14
2022-10-04T08:02:12.186Z,16.14
2022-10-04T08:04:38.304Z,16.17
2022-10-04T08:06:56.359Z,16.20
2022-10-04T08:09:30.014Z,16.26
2022-10-04T08:11:44.893Z,16.28
2022-10-04T08:13:55.187Z,16.31
2022-10-04T08:16:04.648Z,16.32
2022-10-04T08:18:23.867Z,16.34
2022-10-04T08:20:46.967Z,16.35
2022-10-04T08:23:03.252Z,16.36
2022-10-04T08:25:16.916Z,16.35
2022-10-04T08:27:33.718Z,16.37
2022-10-04T08:30:02.749Z,16.35
2022-10-04T08:32:15.585Z,16.34
2022-10-04T08:34:32.199Z,16.36
2022-10-04T08:36:54.025Z,16.34
2022-10-04T08:38:59.590Z,16.34
2022-10-04T08:41:35.667Z,16.34
2022-10-04T08:44:13.767Z,16.35
2022-10-04T08:46:52.176Z,16.35
2022-10-04T08:49:43.433Z,16.37
2022-10-04T08:52:27.422Z,16.39
2022-10-04T08:55:01.636Z,16.41
2022-10-04T08:57:19.282Z,16.42
2022-10-04T08:59:50.269Z,16.45
2022-10-04T09:02:19.103Z,16.47
2022-10-04T09:04:53.597Z,16.50
2022-10-04T09:07:15.076Z,16.52
2022-10-04T09:09:53.081Z,16.56
2022-10-04T09:12:13.025Z,16.60
2022-10-04T09:14:40.206Z,16.62
2022-10-04T09:16:47.841Z,16.65
2022-10-04T09:19:22.057Z,16.65
2022-10-04T09:21:51.014Z,16.65
2022-10-04T09:24:30.179Z,16.64
2022-10-04T09:26:46.493Z,16.67
2022-10-04T09:29:32.955Z,16.70
2022-10-04T09:32:18.228Z,16.76
2022-10-04T09:34:37.659Z,16.78
2022-10-04T09:37:10.946Z,16.77
2022-10-04T09:39:38.735Z,16.78
2022-10-04T09:42:11.176Z,16.80
2022-10-04T09:44:54.902Z,16.81
2022-10-04T09:47:31.528Z,16.84
2022-10-04T09:49:59.142Z,16.87
2022-10-04T09:52:19.614Z,16.91
2022-10-04T09:54:50.981Z,16.91
2022-10-04T09:57:19.628Z,16.91
2022-10-04T09:59:47.960Z,16.87
2022-10-04T10:02:14.898Z,16.81
2022-10-04T10:04:37.445Z,16.72
2022-10-04T10:06:56.754Z,16.64
2022-10-04T10:09:12.628Z,16.56
2022-10-04T10:11:43.906Z,16.52
2022-10-04T10:14:20.320Z,16.49
2022-10-04T10:16:42.397Z,16.43
2022-10-04T10:19:00.859Z,16.39
2022-10-04T10:21:28.393Z,16.35
2022-10-04T10:24:01.629Z,16.29
2022-10-04T10:26:32.488Z,16.23
2022-10-04T10:29:02.897Z,16.19
2022-10-04T10:31:29.612Z,16.07
2022-10-04T10:33:57.367Z,16.01
2022-10-04T10:36:23.831Z,15.96
2022-10-04T10:38:49.966Z,15.93
2022-10-04T10:41:23.391Z,15.86
2022-10-04T10:43:46.777Z,15.83
2022-10-04T10:46:06.458Z,15.83
2022-10-04T10:48:18.900Z,15.81
2022-10-04T10:51:00.295Z,15.80
2022-10-04T10:53:48.663Z,15.82
2022-10-04T10:56:26.698Z,15.86
2022-10-04T10:58:58.521Z,15.88
2022-10-04T11:01:34.058Z,15.92
2022-10-04T11:04:19.415Z,15.98
2022-10-04T11:06:49.363Z,16.04
2022-10-04T11:09:20.138Z,16.10
2022-10-04T11:11:42.162Z,16.16
2022-10-04T11:14:22.221Z,16.20
2022-10-04T11:17:09.834Z,16.25
2022-10-04T11:19:42.131Z,16.28
2022-10-04T11:22:14.378Z,16.29
2022-10-04T11:24:45.784Z,16.27
2022-10-04T11:27:15.306Z,16.29
2022-10-04T11:29:36.988Z,16.30
2022-10-04T11:31:59.771Z,16.32
2022-10-04T11:34:29.696Z,16.39
2022-10-04T11:36:57.281Z,16.47
2022-10-04T11:39:35.886Z,16.53
2022-10-04T11:41:52.728Z,16.60
2022-10-04T11:44:16.860Z,16.62
2022-10-04T11:46:33.920Z,16.63
2022-10-04T11:48:54.180Z,16.62
2022-10-04T11:51:36.302Z,16.61
2022-10-04T11:54:18.369Z,16.59
2022-10-04T11:56:45.885Z,16.57
2022-10-04T11:59:19.490Z,16.58
2022-10-04T12:01:50.937Z,16.58
2022-10-04T12:04:15.657Z,16.60
2022-10-04T12:06:36.006Z,16.66
2022-10-04T12:08:53.284Z,16.73
2022-10-04T12:12:07.747Z,16.76
2022-10-04T12:14:26.737Z,16.84
2022-10-04T12:16:52.372Z,16.88
2022-10-04T12:19:22.379Z,16.91
2022-10-04T12:21:42.733Z,16.95
2022-10-04T12:24:04.398Z,16.99
2022-10-04T12:26:44.571Z,17.02
2022-10-04T12:29:11.814Z,17.05
2022-10-04T12:31:25.712Z,17.10
2022-10-04T12:33:37.049Z,17.13
2022-10-04T12:36:00.684Z,17.18
2022-10-04T12:38:29.021Z,17.23
2022-10-04T12:40:38.659Z,17.30
2022-10-04T12:42:53.690Z,17.36
2022-10-04T12:45:16.241Z,17.45
2022-10-04T12:47:49.564Z,17.51
2022-10-04T12:50:04.798Z,17.57
2022-10-04T12:52:17.667Z,17.60
2022-10-04T12:54:41.742Z,17.63
2022-10-04T12:56:51.633Z,17.66
2022-10-04T12:59:17.973Z,17.64
2022-10-04T13:01:33.558Z,17.62
2022-10-04T13:04:01.280Z,17.58
2022-10-04T13:06:16.663Z,17.57
2022-10-04T13:08:33.810Z,17.56
2022-10-04T13:11:04.754Z,17.52
2022-10-04T13:13:50.708Z,17.50
2022-10-04T13:18:30.772Z,17.51
2022-10-04T13:20:51.064Z,17.47
2022-10-04T13:23:01.656Z,17.42
2022-10-04T13:25:38.653Z,17.34
2022-10-04T13:27:50.100Z,17.28
2022-10-04T13:30:02.669Z,17.24
2022-10-04T13:32:14.847Z,17.19
2022-10-04T13:34:27.260Z,17.16
2022-10-04T13:36:46.694Z,17.15
2022-10-04T13:39:16.137Z,17.12
2022-10-04T13:41:33.505Z,17.07
2022-10-04T13:44:03.708Z,17.05
2022-10-04T13:46:20.242Z,17.02
2022-10-04T13:48:42.533Z,16.97
2022-10-04T13:51:03.069Z,16.95
2022-10-04T13:53:40.283Z,16.88
2022-10-04T13:56:07.103Z,16.83
2022-10-04T13:58:26.254Z,16.80
2022-10-04T14:00:52.828Z,16.78
2022-10-04T14:03:23.630Z,16.74
2022-10-04T14:06:14.000Z,16.69
2022-10-04T14:09:00.042Z,16.67
2022-10-04T14:11:28.049Z,16.67
2022-10-04T14:13:55.753Z,16.70
2022-10-04T14:16:19.342Z,16.69
2022-10-04T14:18:36.474Z,16.64
2022-10-04T14:21:19.163Z,16.61
2022-10-04T14:23:48.709Z,16.54
2022-10-04T14:26:34.470Z,16.51
2022-10-04T14:29:07.726Z,16.50
2022-10-04T14:31:43.101Z,16.49
2022-10-04T14:34:20.788Z,16.51
2022-10-04T14:36:44.354Z,16.56
2022-10-04T14:39:02.555Z,16.61
2022-10-04T14:41:37.000Z,16.63
2022-10-04T14:44:41.609Z,16.68
2022-10-04T14:47:02.035Z,16.74
2022-10-04T14:49:22.946Z,16.76
2022-10-04T14:51:38.520Z,16.79
2022-10-04T14:53:54.311Z,16.79
2022-10-04T14:56:17.329Z,16.78
2022-10-04T14:58:31.352Z,16.78
2022-10-04T15:00:50.886Z,16.79
2022-10-04T15:03:15.446Z,16.76
2022-10-04T15:05:44.675Z,16.74
2022-10-04T15:07:52.287Z,16.74
2022-10-04T15:09:59.136Z,16.73
2022-10-04T15:13:09.328Z,16.73
2022-10-04T15:15:37.274Z,16.72
2022-10-04T15:17:55.731Z,16.69
2022-10-04T15:20:10.023Z,16.65
2022-10-04T15:22:17.736Z,16.63
2022-10-04T15:24:29.924Z,16.58
2022-10-04T15:26:55.960Z,16.54
2022-10-04T15:29:24.330Z,16.50
2022-10-04T15:31:36.006Z,16.46
2022-10-04T15:33:59.708Z,16.44
2022-10-04T15:36:40.371Z,16.41
2022-10-04T15:38:57.664Z,16.39
2022-10-04T15:41:08.173Z,16.36
2022-10-04T15:43:28.839Z,16.35
2022-10-04T15:45:57.327Z,16.35
2022-10-04T15:48:38.935Z,16.35
2022-10-04T15:50:57.067Z,16.35
2022-10-04T15:53:30.962Z,16.35
2022-10-04T15:56:00.161Z,16.34
2022-10-04T15:58:31.522Z,16.33
2022-10-04T16:00:48.397Z,16.31
2022-10-04T16:03:20.557Z,16.32
2022-10-04T16:05:39.622Z,16.30
2022-10-04T16:08:01.637Z,16.31
2022-10-04T16:10:19.307Z,16.30
2022-10-04T16:12:29.519Z,16.30
2022-10-04T16:15:02.015Z,16.30
2022-10-04T16:18:00.624Z,16.28
2022-10-04T16:20:22.158Z,16.26
2022-10-04T16:22:30.496Z,16.22
2022-10-04T16:24:45.827Z,16.20
2022-10-04T16:27:43.031Z,16.18
2022-10-04T16:30:21.716Z,16.17
2022-10-04T16:32:24.281Z,16.17
2022-10-04T16:34:41.924Z,16.17
2022-10-04T16:36:52.764Z,16.17
2022-10-04T16:39:18.979Z,16.15
2022-10-04T16:41:37.005Z,16.11
2022-10-04T16:43:53.231Z,16.04
2022-10-04T16:46:23.318Z,16.00
2022-10-04T16:48:36.423Z,15.96
2022-10-04T16:50:58.005Z,15.83
2022-10-04T16:53:21.870Z,15.75
2022-10-04T16:55:53.510Z,15.72
2022-10-04T16:58:38.728Z,15.74
2022-10-04T17:00:42.742Z,15.75
2022-10-04T17:03:09.245Z,15.77
2022-10-04T17:05:50.445Z,15.77
2022-10-04T17:08:11.641Z,15.78
2022-10-04T17:10:28.883Z,15.75
2022-10-04T17:12:45.821Z,15.74
2022-10-04T17:14:59.022Z,15.74
2022-10-04T17:17:03.318Z,15.73
2022-10-04T17:19:32.121Z,15.73
2022-10-04T17:21:44.950Z,15.71
2022-10-04T17:24:11.272Z,15.69
2022-10-04T17:26:30.420Z,15.69
2022-10-04T17:28:46.697Z,15.67
2022-10-04T17:31:00.410Z,15.65
2022-10-04T17:33:18.758Z,15.59
2022-10-04T17:36:07.554Z,15.54
2022-10-04T17:38:19.240Z,15.50
2022-10-04T17:40:36.604Z,15.46
2022-10-04T17:42:49.728Z,15.43
2022-10-04T17:45:09.269Z,15.39
2022-10-04T17:47:21.540Z,15.38
2022-10-04T17:49:55.607Z,15.35
2022-10-04T17:52:23.236Z,15.33
2022-10-04T17:54:49.936Z,15.29
2022-10-04T17:57:12.548Z,15.22
2022-10-04T17:59:21.928Z,15.19
2022-10-04T18:01:31.961Z,15.16
2022-10-04T18:03:41.505Z,15.14
2022-10-04T18:05:51.694Z,15.10
2022-10-04T18:08:04.583Z,15.09
2022-10-04T18:10:24.366Z,15.05
2022-10-04T18:12:33.997Z,15.04
2022-10-04T18:14:55.856Z,15.03
2022-10-04T18:17:24.759Z,14.99
2022-10-04T18:19:41.781Z,14.96
2022-10-04T18:21:53.030Z,14.93
2022-10-04T18:24:01.334Z,14.92
2022-10-04T18:26:17.628Z,14.92
2022-10-04T18:28:22.805Z,14.92
2022-10-04T18:30:26.860Z,14.92
2022-10-04T18:32:35.366Z,14.91
2022-10-04T18:34:40.700Z,14.90
2022-10-04T18:36:59.036Z,14.89
2022-10-04T18:39:07.596Z,14.88
2022-10-04T18:41:20.314Z,14.87
2022-10-04T18:43:27.595Z,14.86
2022-10-04T18:45:32.535Z,14.86
2022-10-04T18:47:38.494Z,14.87
2022-10-04T18:49:51.262Z,14.87
2022-10-04T18:52:20.337Z,14.87
2022-10-04T18:54:34.400Z,14.89
2022-10-04T18:56:49.529Z,14.92
2022-10-04T18:59:33.772Z,14.92
2022-10-04T19:02:03.776Z,14.91
2022-10-04T19:04:16.233Z,14.91
2022-10-04T19:06:26.967Z,14.93
2022-10-04T19:08:41.303Z,14.94
2022-10-04T19:10:50.587Z,14.95
2022-10-04T19:13:16.367Z,14.96
2022-10-04T19:15:42.868Z,14.97
2022-10-04T19:17:59.227Z,14.98
2022-10-04T19:20:07.915Z,14.98
2022-10-04T19:22:27.087Z,14.99
2022-10-04T19:24:50.623Z,14.99
2022-10-04T19:27:03.554Z,14.97
2022-10-04T19:29:20.335Z,14.97
2022-10-04T19:31:34.450Z,14.96
2022-10-04T19:33:50.440Z,14.96
2022-10-04T19:36:18.694Z,14.95
2022-10-04T19:38:51.239Z,14.93
2022-10-04T19:41:05.668Z,14.88
2022-10-04T19:43:12.750Z,14.87
2022-10-04T19:45:34.173Z,14.86
2022-10-04T19:47:49.982Z,14.86
2022-10-04T19:50:02.831Z,14.86
2022-10-04T19:52:22.572Z,14.85
2022-10-04T19:54:35.401Z,14.85
2022-10-04T19:56:50.064Z,14.84
2022-10-04T19:59:02.240Z,14.84
2022-10-04T20:01:14.190Z,14.84
2022-10-04T20:03:19.151Z,14.84
2022-10-04T20:05:25.524Z,14.85
2022-10-04T20:07:31.058Z,14.85
2022-10-04T20:09:55.102Z,14.85
2022-10-04T20:12:00.920Z,14.85
2022-10-04T20:14:57.504Z,14.87
2022-10-04T20:17:08.185Z,14.87
2022-10-04T20:19:23.535Z,14.88
2022-10-04T20:21:34.653Z,14.88
2022-10-04T20:23:57.056Z,14.87
2022-10-04T20:26:03.148Z,14.89
2022-10-04T20:28:07.586Z,14.86
2022-10-04T20:30:15.383Z,14.86
2022-10-04T20:32:52.198Z,14.85
2022-10-04T20:35:00.983Z,14.85
2022-10-04T20:37:08.985Z,14.85
2022-10-04T20:40:00.284Z,14.86
2022-10-04T20:42:23.113Z,14.86
2022-10-04T20:44:56.324Z,14.87
2022-10-04T20:47:01.145Z,14.87
2022-10-04T20:49:07.705Z,14.87
2022-10-04T20:51:21.811Z,14.86
2022-10-04T20:53:30.070Z,14.86
2022-10-04T20:55:36.789Z,14.86
2022-10-04T20:57:42.472Z,14.85
2022-10-04T20:59:49.234Z,14.85
2022-10-04T21:02:05.646Z,14.85
2022-10-04T21:04:30.530Z,14.85
2022-10-04T21:06:53.027Z,14.84
2022-10-04T21:08:57.686Z,14.85
2022-10-04T21:11:22.508Z,14.85
2022-10-04T21:13:46.169Z,14.83
2022-10-04T21:16:00.002Z,14.83
2022-10-04T21:18:06.622Z,14.84
2022-10-04T21:20:17.308Z,14.84
2022-10-04T21:22:40.553Z,14.84
2022-10-04T21:24:55.599Z,14.84
2022-10-04T21:27:00.889Z,14.84
2022-10-04T21:29:06.617Z,14.84
2022-10-04T21:31:11.730Z,14.83
2022-10-04T21:33:16.637Z,14.84
2022-10-04T21:35:20.978Z,14.85
2022-10-04T21:37:26.656Z,14.84
2022-10-04T21:39:32.795Z,14.85
2022-10-04T21:41:37.868Z,14.85
2022-10-04T21:43:41.919Z,14.84
2022-10-04T21:45:46.842Z,14.84
2022-10-04T21:47:50.875Z,14.84
2022-10-04T21:49:55.432Z,14.85
2022-10-04T21:51:59.577Z,14.85
2022-10-04T21:54:03.782Z,14.85
2022-10-04T21:56:09.169Z,14.85
2022-10-04T21:58:13.474Z,14.85
2022-10-04T22:00:17.415Z,14.84
2022-10-04T22:02:21.298Z,14.85
2022-10-04T22:04:24.947Z,14.85
2022-10-04T22:06:28.595Z,14.86
2022-10-04T22:08:32.245Z,14.87
2022-10-04T22:10:36.106Z,14.86
2022-10-04T22:12:41.286Z,14.86
2022-10-04T22:14:45.035Z,14.87
2022-10-04T22:16:49.420Z,14.87
2022-10-04T22:18:53.908Z,14.88
2022-10-04T22:20:57.771Z,14.90
2022-10-04T22:23:19.708Z,14.92
2022-10-04T22:25:25.191Z,14.94
2022-10-04T22:27:31.188Z,14.94
2022-10-04T22:29:37.130Z,14.95
2022-10-04T22:31:44.075Z,14.96
2022-10-04T22:33:50.571Z,14.95
2022-10-04T22:35:57.074Z,14.95
2022-10-04T22:38:01.994Z,14.95
2022-10-04T22:40:07.463Z,14.95
2022-10-04T22:42:15.322Z,14.94
2022-10-04T22:44:21.520Z,14.94
2022-10-04T22:46:33.988Z,14.95
2022-10-04T22:48:38.344Z,14.93
2022-10-04T22:50:42.216Z,14.92
2022-10-04T22:52:45.872Z,14.89
2022-10-04T22:54:52.460Z,14.88
2022-10-04T22:56:58.090Z,14.88
2022-10-04T22:59:01.875Z,14.85
2022-10-04T23:01:11.284Z,14.85
2022-10-04T23:03:26.481Z,14.85
2022-10-04T23:05:30.233Z,14.83
2022-10-04T23:07:38.174Z,14.82
2022-10-04T23:09:42.787Z,14.82
2022-10-04T23:11:47.282Z,14.82
2022-10-04T23:13:50.984Z,14.82
2022-10-04T23:15:57.776Z,14.81
2022-10-04T23:18:01.656Z,14.82
2022-10-04T23:20:12.966Z,14.82
2022-10-04T23:22:19.064Z,14.83
2022-10-04T23:24:24.396Z,14.84
2022-10-04T23:26:34.428Z,14.85
2022-10-04T23:28:38.781Z,14.85
2022-10-04T23:30:43.082Z,14.88
2022-10-04T23:32:48.983Z,14.89
2022-10-04T23:34:56.627Z,14.89
2022-10-04T23:37:02.194Z,14.92
2022-10-04T23:39:13.478Z,14.93
2022-10-04T23:41:20.259Z,14.93
2022-10-04T23:43:27.022Z,14.92
2022-10-04T23:45:31.014Z,14.93
2022-10-04T23:47:36.059Z,14.91
2022-10-04T23:49:39.787Z,14.92
2022-10-04T23:51:44.139Z,14.92
2022-10-04T23:53:51.301Z,14.92
2022-10-04T23:55:56.460Z,14.92
2022-10-04T23:58:01.283Z,14.93
